createdAt,value
2023-03-29T00:01:42.281Z,3.40
2023-03-29T00:04:10.190Z,3.63
2023-03-29T00:06:38.015Z,3.23
2023-03-29T00:09:05.921Z,3.30
2023-03-29T00:11:33.516Z,3.80
2023-03-29T00:14:00.891Z,3.70
2023-03-29T00:16:28.343Z,3.40
2023-03-29T00:18:55.819Z,3.37
2023-03-29T00:21:23.495Z,3.60
2023-03-29T00:23:50.840Z,3.00
2023-03-29T00:26:18.203Z,2.90
2023-03-29T00:28:45.590Z,3.23
2023-03-29T00:31:14.878Z,3.20
2023-03-29T00:33:42.480Z,2.87
2023-03-29T00:36:10.998Z,2.97
2023-03-29T00:38:38.561Z,2.73
2023-03-29T00:41:07.555Z,3.50
2023-03-29T00:43:53.753Z,3.40
2023-03-29T00:46:21.118Z,3.60
2023-03-29T00:48:48.767Z,3.17
2023-03-29T00:51:18.807Z,2.93
2023-03-29T00:53:48.387Z,3.07
2023-03-29T00:56:24.156Z,3.03
2023-03-29T00:58:55.750Z,2.80
2023-03-29T01:01:26.380Z,2.70
2023-03-29T01:03:55.519Z,2.70
2023-03-29T01:06:24.611Z,3.03
2023-03-29T01:08:53.490Z,2.37
2023-03-29T01:11:22.318Z,2.73
2023-03-29T01:13:51.294Z,2.70
2023-03-29T01:16:19.373Z,2.93
2023-03-29T01:18:49.609Z,2.90
2023-03-29T01:21:24.203Z,2.90
2023-03-29T01:23:54.365Z,3.13
2023-03-29T01:26:23.270Z,3.53
2023-03-29T01:28:52.113Z,3.20
2023-03-29T01:31:21.658Z,3.40
2023-03-29T01:33:50.721Z,2.80
2023-03-29T01:36:19.637Z,3.23
2023-03-29T01:38:48.548Z,3.00
2023-03-29T01:41:16.388Z,2.90
2023-03-29T01:43:45.237Z,3.13
2023-03-29T01:46:16.881Z,3.50
2023-03-29T01:49:01.365Z,3.47
2023-03-29T01:51:30.338Z,3.10
2023-03-29T01:54:02.809Z,3.10
2023-03-29T01:56:31.821Z,3.30
2023-03-29T01:59:00.928Z,3.10
2023-03-29T02:01:29.983Z,3.40
2023-03-29T02:03:58.952Z,2.87
2023-03-29T02:06:27.992Z,2.90
2023-03-29T02:08:57.001Z,3.50
2023-03-29T02:11:25.715Z,3.17
2023-03-29T02:13:53.284Z,3.33
2023-03-29T02:16:20.947Z,3.70
2023-03-29T02:18:49.594Z,3.30
2023-03-29T02:21:18.515Z,3.23
2023-03-29T02:23:47.342Z,3.30
2023-03-29T02:26:14.826Z,3.40
2023-03-29T02:28:42.561Z,2.80
2023-03-29T02:31:11.514Z,2.90
2023-03-29T02:33:41.838Z,3.07
2023-03-29T02:36:11.289Z,3.50
2023-03-29T02:38:38.977Z,3.57
2023-03-29T02:41:06.861Z,3.13
2023-03-29T02:43:35.934Z,2.70
2023-03-29T02:46:03.666Z,3.67
2023-03-29T02:48:32.404Z,3.30
2023-03-29T02:51:01.573Z,3.30
2023-03-29T02:53:33.197Z,3.20
2023-03-29T02:56:01.971Z,3.33
2023-03-29T02:58:29.343Z,3.30
2023-03-29T03:00:58.177Z,3.20
2023-03-29T03:03:25.664Z,3.30
2023-03-29T03:05:53.851Z,3.47
2023-03-29T03:08:21.361Z,3.10
2023-03-29T03:10:48.655Z,3.07
2023-03-29T03:13:16.209Z,3.87
2023-03-29T03:15:45.155Z,2.93
2023-03-29T03:18:12.586Z,3.80
2023-03-29T03:20:40.533Z,3.43
2023-03-29T03:23:09.571Z,3.63
2023-03-29T03:25:36.960Z,3.30
2023-03-29T03:28:04.792Z,3.80
2023-03-29T03:30:33.644Z,4.03
2023-03-29T03:33:01.116Z,4.10
2023-03-29T03:35:28.522Z,4.20
2023-03-29T03:37:55.834Z,3.73
2023-03-29T03:40:23.171Z,3.70
2023-03-29T03:42:50.509Z,3.33
2023-03-29T03:45:17.997Z,3.63
2023-03-29T03:47:45.860Z,3.77
2023-03-29T03:50:13.583Z,4.40
2023-03-29T03:52:40.955Z,3.87
2023-03-29T03:55:09.058Z,3.53
2023-03-29T03:57:39.613Z,3.83
2023-03-29T04:00:19.406Z,3.53
2023-03-29T04:02:47.922Z,3.77
2023-03-29T04:05:16.255Z,3.47
2023-03-29T04:07:43.690Z,4.20
2023-03-29T04:10:11.116Z,3.30
2023-03-29T04:12:38.750Z,3.77
2023-03-29T04:15:06.893Z,3.43
2023-03-29T04:17:34.398Z,4.30
2023-03-29T04:20:03.528Z,3.77
2023-03-29T04:22:30.905Z,3.93
2023-03-29T04:24:58.292Z,3.70
2023-03-29T04:27:25.724Z,3.30
2023-03-29T04:29:53.088Z,4.20
2023-03-29T04:32:20.467Z,4.30
2023-03-29T04:34:47.831Z,3.73
2023-03-29T04:37:16.172Z,3.30
2023-03-29T04:39:44.836Z,4.10
2023-03-29T04:42:12.195Z,4.03
2023-03-29T04:44:41.205Z,4.53
2023-03-29T04:47:08.544Z,3.73
2023-03-29T04:49:35.987Z,3.60
2023-03-29T04:52:03.361Z,4.33
2023-03-29T04:54:30.733Z,3.63
2023-03-29T04:56:58.035Z,3.90
2023-03-29T04:59:25.406Z,4.40
2023-03-29T05:01:54.360Z,3.90
2023-03-29T05:04:21.824Z,4.10
2023-03-29T05:06:49.180Z,4.07
2023-03-29T05:09:16.927Z,4.13
2023-03-29T05:11:44.568Z,4.40
2023-03-29T05:14:11.949Z,4.30
2023-03-29T05:16:40.406Z,4.07
2023-03-29T05:19:09.090Z,4.10
2023-03-29T05:21:36.546Z,4.67
2023-03-29T05:24:04.537Z,4.57
2023-03-29T05:26:31.994Z,4.20
2023-03-29T05:28:59.364Z,4.33
2023-03-29T05:31:27.916Z,4.10
2023-03-29T05:33:55.317Z,4.07
2023-03-29T05:36:23.182Z,4.27
2023-03-29T05:38:50.643Z,4.63
2023-03-29T05:41:18.022Z,4.50
2023-03-29T05:43:45.489Z,4.67
2023-03-29T05:46:13.178Z,4.40
2023-03-29T05:48:40.662Z,4.90
2023-03-29T05:51:08.389Z,4.50
2023-03-29T05:53:35.813Z,4.70
2023-03-29T05:56:03.791Z,4.20
2023-03-29T05:58:31.179Z,4.20
2023-03-29T06:01:00.339Z,5.37
2023-03-29T06:03:28.141Z,5.20
2023-03-29T06:05:57.476Z,4.77
2023-03-29T06:08:25.999Z,5.03
2023-03-29T06:10:54.914Z,4.80
2023-03-29T06:13:22.315Z,4.50
2023-03-29T06:15:49.709Z,4.63
2023-03-29T06:18:17.099Z,4.60
2023-03-29T06:20:44.496Z,4.33
2023-03-29T06:23:11.885Z,4.70
2023-03-29T06:25:39.353Z,5.30
2023-03-29T06:28:07.307Z,4.67
2023-03-29T06:30:34.694Z,4.30
2023-03-29T06:33:02.240Z,4.90
2023-03-29T06:35:30.087Z,4.27
2023-03-29T06:37:57.470Z,4.50
2023-03-29T06:40:24.912Z,4.60
2023-03-29T06:42:53.920Z,4.67
2023-03-29T06:45:23.816Z,5.20
2023-03-29T06:47:51.718Z,4.43
2023-03-29T06:50:19.179Z,4.17
2023-03-29T06:52:47.707Z,4.30
2023-03-29T06:55:15.682Z,4.90
2023-03-29T06:57:43.648Z,5.37
2023-03-29T07:00:15.885Z,4.80
2023-03-29T07:02:43.277Z,4.80
2023-03-29T07:05:13.385Z,4.90
2023-03-29T07:07:55.504Z,4.93
2023-03-29T07:10:28.034Z,4.93
2023-03-29T07:12:55.463Z,4.27
2023-03-29T07:15:22.925Z,4.40
2023-03-29T07:17:50.343Z,4.50
2023-03-29T07:20:17.999Z,4.00
2023-03-29T07:22:47.013Z,5.33
2023-03-29T07:25:16.257Z,5.00
2023-03-29T07:27:43.708Z,4.90
2023-03-29T07:30:12.176Z,4.30
2023-03-29T07:32:40.315Z,4.30
2023-03-29T07:35:08.899Z,3.87
2023-03-29T07:37:39.828Z,4.27
2023-03-29T07:40:23.804Z,4.60
2023-03-29T07:42:52.540Z,4.30
2023-03-29T07:45:26.556Z,4.13
2023-03-29T07:47:56.899Z,4.87
2023-03-29T07:50:24.756Z,4.50
2023-03-29T07:52:52.519Z,3.97
2023-03-29T07:55:20.429Z,4.47
2023-03-29T07:57:49.219Z,4.30
2023-03-29T08:00:17.329Z,4.37
2023-03-29T08:02:45.557Z,4.70
2023-03-29T08:05:14.354Z,4.17
2023-03-29T08:07:42.873Z,3.83
2023-03-29T08:10:11.546Z,3.80
2023-03-29T08:12:38.915Z,3.30
2023-03-29T08:15:06.753Z,4.20
2023-03-29T08:17:34.811Z,3.73
2023-03-29T08:20:02.854Z,3.93
2023-03-29T08:22:30.220Z,4.17
2023-03-29T08:24:57.708Z,4.33
2023-03-29T08:27:25.141Z,4.10
2023-03-29T08:29:52.556Z,3.33
2023-03-29T08:32:19.909Z,3.47
2023-03-29T08:34:47.528Z,3.60
2023-03-29T08:37:15.031Z,3.47
2023-03-29T08:39:42.567Z,3.60
2023-03-29T08:42:26.442Z,4.23
2023-03-29T08:45:11.348Z,3.80
2023-03-29T08:47:40.298Z,3.70
2023-03-29T08:50:09.248Z,3.40
2023-03-29T08:52:41.113Z,3.90
2023-03-29T08:55:11.110Z,4.30
2023-03-29T08:57:40.888Z,4.00
2023-03-29T09:00:10.408Z,3.70
2023-03-29T09:02:37.970Z,4.30
2023-03-29T09:05:13.849Z,4.00
2023-03-29T09:07:41.926Z,3.30
2023-03-29T09:10:10.867Z,3.33
2023-03-29T09:12:52.521Z,3.20
2023-03-29T09:15:21.498Z,3.87
2023-03-29T09:17:50.563Z,4.10
2023-03-29T09:20:22.618Z,4.30
2023-03-29T09:23:03.533Z,3.70
2023-03-29T09:25:50.765Z,3.60
2023-03-29T09:28:11.663Z,3.50
2023-03-29T09:30:44.356Z,4.17
2023-03-29T09:33:25.301Z,3.40
2023-03-29T09:35:54.970Z,2.77
2023-03-29T09:38:22.896Z,3.50
2023-03-29T09:40:57.741Z,3.50
2023-03-29T09:43:32.557Z,3.47
2023-03-29T09:46:01.611Z,3.60
2023-03-29T09:48:30.608Z,2.90
2023-03-29T09:50:58.103Z,3.50
2023-03-29T09:53:26.273Z,3.40
2023-03-29T09:55:55.128Z,3.37
2023-03-29T09:58:27.517Z,3.07
2023-03-29T10:00:56.425Z,3.50
2023-03-29T10:03:25.338Z,2.80
2023-03-29T10:05:54.382Z,3.63
2023-03-29T10:08:27.640Z,2.83
2023-03-29T10:10:56.854Z,3.03
2023-03-29T10:13:26.259Z,3.23
2023-03-29T10:15:58.100Z,3.37
2023-03-29T10:18:27.330Z,3.67
2023-03-29T10:20:56.437Z,3.37
2023-03-29T10:23:23.824Z,3.73
2023-03-29T10:25:51.609Z,3.67
2023-03-29T10:28:22.104Z,3.53
2023-03-29T10:30:51.035Z,3.80
2023-03-29T10:33:19.973Z,3.10
2023-03-29T10:35:47.801Z,3.67
2023-03-29T10:38:17.184Z,3.27
2023-03-29T10:40:49.005Z,2.97
2023-03-29T10:43:31.721Z,3.00
2023-03-29T10:46:00.691Z,3.33
2023-03-29T10:48:31.786Z,3.40
2023-03-29T10:51:01.272Z,3.30
2023-03-29T10:53:30.591Z,3.43
2023-03-29T10:56:11.725Z,3.53
2023-03-29T10:58:40.838Z,4.10
2023-03-29T11:01:09.791Z,3.50
2023-03-29T11:03:54.356Z,4.03
2023-03-29T11:06:39.572Z,3.73
2023-03-29T11:09:20.320Z,2.93
2023-03-29T11:12:04.656Z,3.10
2023-03-29T11:14:34.407Z,3.13
2023-03-29T11:17:03.348Z,3.10
2023-03-29T11:19:38.432Z,2.90
2023-03-29T11:22:08.540Z,2.90
2023-03-29T11:24:46.784Z,2.47
2023-03-29T11:27:15.777Z,3.00
2023-03-29T11:30:03.068Z,2.80
2023-03-29T11:32:50.303Z,3.23
2023-03-29T11:35:19.495Z,3.00
2023-03-29T11:37:49.681Z,2.83
2023-03-29T11:40:18.583Z,3.20
2023-03-29T11:42:47.532Z,4.07
2023-03-29T11:45:22.528Z,3.17
2023-03-29T11:47:50.568Z,3.37
2023-03-29T11:50:25.416Z,3.13
2023-03-29T11:52:57.410Z,3.73
2023-03-29T11:55:26.591Z,2.93
2023-03-29T11:57:58.243Z,3.20
2023-03-29T12:00:33.207Z,3.67
2023-03-29T12:03:17.490Z,3.27
2023-03-29T12:05:49.112Z,2.93
2023-03-29T12:08:18.039Z,3.50
2023-03-29T12:11:02.279Z,3.70
2023-03-29T12:13:32.037Z,3.33
2023-03-29T12:16:03.649Z,2.87
2023-03-29T12:18:32.716Z,3.20
2023-03-29T12:21:01.960Z,3.67
2023-03-29T12:23:31.597Z,3.80
2023-03-29T12:26:06.248Z,3.10
2023-03-29T12:28:38.601Z,2.77
2023-03-29T12:31:19.558Z,3.10
2023-03-29T12:33:54.178Z,2.90
2023-03-29T12:36:39.541Z,3.23
2023-03-29T12:39:09.360Z,3.13
2023-03-29T12:41:38.171Z,3.20
2023-03-29T12:44:05.751Z,3.40
2023-03-29T12:46:35.119Z,3.20
2023-03-29T12:49:05.625Z,3.10
2023-03-29T12:51:33.906Z,3.40
2023-03-29T12:54:08.645Z,3.37
2023-03-29T12:56:37.568Z,3.47
2023-03-29T12:59:12.151Z,3.40
2023-03-29T13:01:42.191Z,3.70
2023-03-29T13:04:20.030Z,3.30
2023-03-29T13:06:49.730Z,3.40
2023-03-29T13:09:21.832Z,3.67
2023-03-29T13:11:53.734Z,3.70
2023-03-29T13:14:22.512Z,3.40
2023-03-29T13:16:49.963Z,3.50
2023-03-29T13:19:21.920Z,4.37
2023-03-29T13:21:56.516Z,3.80
2023-03-29T13:24:25.718Z,3.17
2023-03-29T13:26:54.634Z,3.47
2023-03-29T13:29:38.684Z,3.70
2023-03-29T13:32:25.913Z,3.27
2023-03-29T13:35:11.445Z,2.90
2023-03-29T13:37:40.714Z,3.40
2023-03-29T13:40:21.633Z,3.47
2023-03-29T13:42:50.648Z,2.97
2023-03-29T13:45:26.066Z,3.40
2023-03-29T13:48:05.789Z,2.97
2023-03-29T13:50:40.114Z,3.03
2023-03-29T13:53:09.541Z,2.90
2023-03-29T13:55:44.349Z,3.03
2023-03-29T13:58:22.248Z,3.33
2023-03-29T14:00:57.310Z,2.90
2023-03-29T14:03:27.479Z,2.80
2023-03-29T14:05:56.409Z,3.37
2023-03-29T14:08:27.806Z,2.70
2023-03-29T14:10:55.764Z,2.30
2023-03-29T14:13:24.800Z,2.60
2023-03-29T14:15:54.527Z,2.50
2023-03-29T14:18:23.277Z,3.20
2023-03-29T14:20:53.752Z,3.10
2023-03-29T14:23:25.805Z,2.50
2023-03-29T14:25:53.258Z,2.70
2023-03-29T14:28:21.824Z,3.17
2023-03-29T14:30:51.119Z,2.70
2023-03-29T14:33:28.762Z,2.87
2023-03-29T14:35:57.649Z,3.00
2023-03-29T14:38:26.063Z,3.30
2023-03-29T14:40:53.917Z,2.70
2023-03-29T14:43:22.351Z,3.10
2023-03-29T14:45:50.514Z,2.90
2023-03-29T14:48:18.365Z,3.00
2023-03-29T14:50:46.833Z,2.57
2023-03-29T14:53:19.128Z,3.20
2023-03-29T14:55:48.041Z,2.57
2023-03-29T14:58:20.382Z,2.67
2023-03-29T15:00:49.920Z,2.60
2023-03-29T15:03:17.459Z,2.70
2023-03-29T15:05:46.532Z,2.43
2023-03-29T15:08:16.384Z,3.77
2023-03-29T15:10:45.084Z,2.93
2023-03-29T15:13:14.166Z,2.70
2023-03-29T15:15:41.556Z,2.83
2023-03-29T15:18:10.567Z,2.67
2023-03-29T15:20:38.752Z,2.60
2023-03-29T15:23:10.675Z,2.47
2023-03-29T15:25:39.043Z,2.40
2023-03-29T15:28:06.442Z,3.07
2023-03-29T15:30:35.628Z,3.30
2023-03-29T15:33:22.964Z,3.70
2023-03-29T15:35:52.020Z,2.67
2023-03-29T15:38:23.372Z,2.70
2023-03-29T15:40:49.486Z,2.80
2023-03-29T15:43:16.946Z,3.60
2023-03-29T15:45:46.042Z,3.00
2023-03-29T15:48:15.336Z,3.17
2023-03-29T15:50:43.863Z,3.10
2023-03-29T15:53:15.373Z,3.00
2023-03-29T15:55:42.641Z,3.07
2023-03-29T15:58:11.707Z,3.20
2023-03-29T16:00:40.772Z,3.50
2023-03-29T16:03:10.191Z,3.10
2023-03-29T16:05:37.520Z,3.77
2023-03-29T16:08:04.920Z,3.23
2023-03-29T16:10:32.676Z,3.50
2023-03-29T16:13:00.128Z,2.77
2023-03-29T16:15:27.528Z,3.77
2023-03-29T16:17:55.046Z,3.30
2023-03-29T16:20:22.370Z,3.67
2023-03-29T16:22:49.754Z,3.00
2023-03-29T16:25:18.769Z,2.70
2023-03-29T16:27:46.531Z,3.20
2023-03-29T16:30:14.097Z,3.10
2023-03-29T16:32:41.861Z,3.53
2023-03-29T16:35:29.197Z,3.30
2023-03-29T16:37:56.551Z,3.10
2023-03-29T16:40:25.124Z,3.40
2023-03-29T16:42:52.499Z,2.93
2023-03-29T16:45:22.989Z,3.47
2023-03-29T16:47:50.738Z,3.30
2023-03-29T16:50:18.982Z,3.30
2023-03-29T16:52:48.585Z,3.47
2023-03-29T16:55:17.926Z,3.27
2023-03-29T16:57:46.149Z,3.07
2023-03-29T17:00:15.748Z,3.23
2023-03-29T17:02:43.572Z,3.57
2023-03-29T17:05:11.800Z,3.00
2023-03-29T17:07:40.222Z,3.13
2023-03-29T17:10:08.355Z,3.10
2023-03-29T17:12:36.144Z,3.20
2023-03-29T17:15:04.957Z,2.77
2023-03-29T17:17:32.368Z,3.10
2023-03-29T17:20:00.253Z,2.80
2023-03-29T17:22:27.632Z,3.60
2023-03-29T17:24:55.098Z,3.80
2023-03-29T17:27:22.554Z,3.23
2023-03-29T17:29:50.008Z,2.80
2023-03-29T17:32:17.389Z,3.13
2023-03-29T17:34:44.772Z,3.30
2023-03-29T17:37:13.627Z,3.10
2023-03-29T17:39:41.991Z,3.30
2023-03-29T17:42:09.384Z,3.63
2023-03-29T17:44:36.766Z,2.83
2023-03-29T17:47:04.180Z,3.13
2023-03-29T17:49:31.651Z,2.90
2023-03-29T17:51:59.300Z,3.07
2023-03-29T17:54:26.986Z,2.90
2023-03-29T17:56:54.357Z,3.10
2023-03-29T17:59:21.725Z,3.03
2023-03-29T18:01:49.161Z,3.00
2023-03-29T18:04:16.524Z,2.93
2023-03-29T18:06:45.575Z,2.93
2023-03-29T18:09:13.541Z,2.87
2023-03-29T18:11:41.303Z,2.60
2023-03-29T18:14:08.696Z,3.53
2023-03-29T18:16:36.163Z,3.13
2023-03-29T18:19:03.573Z,2.60
2023-03-29T18:21:30.977Z,3.20
2023-03-29T18:23:58.369Z,3.00
2023-03-29T18:26:25.808Z,2.90
2023-03-29T18:28:54.046Z,2.70
2023-03-29T18:31:21.602Z,2.70
2023-03-29T18:33:48.989Z,3.37
2023-03-29T18:36:16.488Z,2.97
2023-03-29T18:38:44.104Z,2.90
2023-03-29T18:41:12.327Z,3.13
2023-03-29T18:43:40.696Z,3.07
2023-03-29T18:46:08.473Z,3.40
2023-03-29T18:48:37.651Z,3.47
2023-03-29T18:51:07.171Z,3.40
2023-03-29T18:53:36.123Z,3.10
2023-03-29T18:56:04.294Z,3.47
2023-03-29T18:58:31.942Z,2.90
2023-03-29T19:01:04.000Z,3.27
2023-03-29T19:03:31.787Z,3.23
2023-03-29T19:05:59.264Z,3.20
2023-03-29T19:08:28.131Z,3.40
2023-03-29T19:10:57.061Z,3.37
2023-03-29T19:13:24.457Z,3.83
2023-03-29T19:15:51.932Z,3.13
2023-03-29T19:18:19.434Z,3.13
2023-03-29T19:20:49.728Z,3.30
2023-03-29T19:23:17.604Z,4.27
2023-03-29T19:25:46.581Z,3.87
2023-03-29T19:28:13.977Z,3.70
2023-03-29T19:30:41.427Z,3.23
2023-03-29T19:33:08.913Z,3.13
2023-03-29T19:35:36.321Z,3.47
2023-03-29T19:38:03.949Z,3.50
2023-03-29T19:40:31.334Z,3.40
2023-03-29T19:42:58.735Z,3.10
2023-03-29T19:45:27.581Z,3.53
2023-03-29T19:47:55.447Z,3.00
2023-03-29T19:50:23.891Z,4.20
2023-03-29T19:52:51.556Z,3.50
2023-03-29T19:55:18.934Z,3.87
2023-03-29T19:57:46.326Z,3.40
2023-03-29T20:00:14.662Z,3.70
2023-03-29T20:02:42.240Z,3.80
2023-03-29T20:05:09.673Z,3.90
2023-03-29T20:07:37.052Z,3.60
2023-03-29T20:10:04.528Z,3.87
2023-03-29T20:12:31.914Z,4.10
2023-03-29T20:14:59.299Z,3.97
2023-03-29T20:17:26.744Z,3.60
2023-03-29T20:19:55.257Z,3.57
2023-03-29T20:22:25.062Z,3.87
2023-03-29T20:24:54.057Z,3.30
2023-03-29T20:27:21.448Z,3.23
2023-03-29T20:29:48.844Z,3.00
2023-03-29T20:32:16.238Z,3.53
2023-03-29T20:34:43.625Z,3.30
2023-03-29T20:37:12.670Z,3.13
2023-03-29T20:39:40.541Z,2.70
2023-03-29T20:42:08.081Z,3.53
2023-03-29T20:44:35.536Z,3.10
2023-03-29T20:47:04.579Z,3.50
2023-03-29T20:49:34.185Z,3.60
2023-03-29T20:52:03.199Z,2.90
2023-03-29T20:54:32.396Z,2.80
2023-03-29T20:56:59.818Z,3.40
2023-03-29T20:59:27.448Z,2.47
2023-03-29T21:01:54.881Z,2.90
2023-03-29T21:04:22.223Z,2.50
2023-03-29T21:06:49.697Z,2.90
2023-03-29T21:09:18.966Z,2.90
2023-03-29T21:11:46.716Z,2.83
2023-03-29T21:14:14.157Z,3.60
2023-03-29T21:16:44.286Z,3.20
2023-03-29T21:19:11.747Z,3.13
2023-03-29T21:21:41.169Z,3.47
2023-03-29T21:24:08.851Z,2.93
2023-03-29T21:26:36.283Z,3.10
2023-03-29T21:29:03.945Z,3.40
2023-03-29T21:31:31.350Z,3.00
2023-03-29T21:33:58.894Z,2.80
2023-03-29T21:36:26.341Z,3.10
2023-03-29T21:38:53.665Z,2.73
2023-03-29T21:41:21.688Z,2.90
2023-03-29T21:43:49.156Z,3.13
2023-03-29T21:46:16.574Z,2.90
2023-03-29T21:48:43.940Z,2.83
2023-03-29T21:51:11.317Z,2.80
2023-03-29T21:53:38.726Z,2.73
2023-03-29T21:56:06.611Z,2.90
2023-03-29T21:58:33.965Z,3.50
2023-03-29T22:01:03.202Z,2.80
2023-03-29T22:03:31.289Z,3.13
2023-03-29T22:06:00.375Z,3.20
2023-03-29T22:08:27.858Z,2.57
2023-03-29T22:10:56.786Z,2.93
2023-03-29T22:13:25.901Z,2.40
2023-03-29T22:16:00.183Z,2.50
2023-03-29T22:18:29.865Z,2.33
2023-03-29T22:20:57.423Z,2.77
2023-03-29T22:23:24.896Z,2.83
2023-03-29T22:25:52.307Z,2.23
2023-03-29T22:28:19.689Z,2.60
2023-03-29T22:30:47.141Z,2.57
2023-03-29T22:33:14.520Z,2.50
2023-03-29T22:35:41.947Z,2.80
2023-03-29T22:38:09.292Z,2.47
2023-03-29T22:40:38.221Z,2.60
2023-03-29T22:43:05.666Z,2.50
2023-03-29T22:45:33.022Z,2.03
2023-03-29T22:48:01.160Z,2.57
2023-03-29T22:50:28.605Z,2.50
2023-03-29T22:52:56.185Z,2.60
2023-03-29T22:55:23.576Z,2.53
2023-03-29T22:57:51.057Z,2.50
2023-03-29T23:00:19.004Z,2.20
2023-03-29T23:02:46.432Z,2.40
2023-03-29T23:05:13.873Z,2.43
2023-03-29T23:07:41.276Z,2.10
2023-03-29T23:10:09.139Z,2.57
2023-03-29T23:12:36.549Z,2.57
2023-03-29T23:15:07.831Z,2.60
2023-03-29T23:17:35.436Z,2.80
2023-03-29T23:20:04.442Z,3.20
2023-03-29T23:22:32.774Z,2.73
2023-03-29T23:25:00.229Z,2.57
2023-03-29T23:27:27.620Z,2.90
2023-03-29T23:29:56.068Z,2.10
2023-03-29T23:32:23.631Z,2.50
2023-03-29T23:34:51.025Z,2.50
2023-03-29T23:37:18.405Z,2.77
2023-03-29T23:39:45.791Z,2.40
2023-03-29T23:42:13.159Z,2.57
2023-03-29T23:44:40.556Z,2.20
2023-03-29T23:47:09.052Z,2.50
2023-03-29T23:49:36.393Z,2.90
2023-03-29T23:52:03.786Z,2.53
2023-03-29T23:54:31.654Z,2.60
2023-03-29T23:56:59.940Z,2.77
2023-03-29T23:59:28.984Z,2.40
